M I D A S
Marine Information and Data Acquisition System
Tripno 1224 of the Zeeleeuw from 2007-03-05 08:13:01 to 2007-03-05 14:10:23
Back to CruiseResearch ActivitiesStationsMapUnderway DataData graphs

EquipmentUnitsComment
TimeDGPSUTC
LatitudeDGPSDM.mWGS84
LongitudeDGPSDM.mWGS84
HeadingGyrodeg 
SOGDGPSknotsSpeed over ground
COGDGPSdegCourse over ground
DepthEcho soundermeters200 kHz
Missing or incorrect values are displayed as -999
Navigation data collected by the RV Zeeleeuw from 2007-03-05 08:16:05 to 2007-03-05 14:20:24
                                                                                    Next 1000 lines
Time Latitude Longitude Heading SOG COG Depth
2007-03-05 08:16:15 51°13.6 2°56.093 113.9 1.1 296 5.2
2007-03-05 08:16:20 51°13.601 2°56.09 113.9 1.6 295 5.2
2007-03-05 08:16:25 51°13.602 2°56.085 113.9 2 296 -999
2007-03-05 08:16:31 51°13.604 2°56.08 113.7 2.5 294 -999
2007-03-05 08:16:37 51°13.605 2°56.073 113.6 2.9 293 -999
2007-03-05 08:16:42 51°13.607 2°56.066 113.6 3.3 292 -999
2007-03-05 08:16:48 51°13.609 2°56.057 113.7 3.4 293 -999
2007-03-05 08:16:53 51°13.611 2°56.05 113.9 3.6 293 -999
2007-03-05 08:16:58 51°13.613 2°56.043 114 3.6 293 -999
2007-03-05 08:17:04 51°13.615 2°56.034 114.4 3.6 292 -999
2007-03-05 08:17:09 51°13.617 2°56.026 114.7 3.6 292 -999
2007-03-05 08:17:14 51°13.619 2°56.019 115.2 3.7 293 -999
2007-03-05 08:17:18 51°13.62 2°56.013 115.7 3.7 294 -999
2007-03-05 08:17:24 51°13.623 2°56.003 116.2 3.7 294 -999
2007-03-05 08:17:29 51°13.625 2°55.995 116.8 3.8 294 -999
2007-03-05 08:17:34 51°13.627 2°55.988 117.3 3.9 296 -999
2007-03-05 08:17:39 51°13.63 2°55.98 118.1 3.9 296 -999
2007-03-05 08:17:43 51°13.631 2°55.974 118.7 3.9 296 -999
2007-03-05 08:17:49 51°13.634 2°55.965 119.1 3.9 297 -999
2007-03-05 08:17:54 51°13.637 2°55.957 119.7 3.9 296 -999
2007-03-05 08:17:59 51°13.639 2°55.949 120.1 4 298 -999
2007-03-05 08:18:03 51°13.641 2°55.943 120.4 4.1 298 -999
2007-03-05 08:18:08 51°13.644 2°55.935 120.8 4 298 -999
2007-03-05 08:18:14 51°13.647 2°55.925 121 4 298 -999
2007-03-05 08:18:19 51°13.65 2°55.918 121.2 3.9 298 -999
2007-03-05 08:18:23 51°13.652 2°55.912 121.4 3.8 298 -999
2007-03-05 08:18:28 51°13.654 2°55.904 121.7 3.8 299 -999
2007-03-05 08:18:33 51°13.657 2°55.897 121.9 3.8 300 4.7
2007-03-05 08:18:38 51°13.659 2°55.89 122 3.7 301 4.6
2007-03-05 08:18:43 51°13.662 2°55.883 122.3 3.6 300 -999
2007-03-05 08:18:48 51°13.665 2°55.877 122.5 3.6 301 4.6
2007-03-05 08:18:53 51°13.667 2°55.87 122.5 3.4 301 4.7
2007-03-05 08:18:58 51°13.669 2°55.863 122.1 3.3 300 4.6
2007-03-05 08:19:03 51°13.671 2°55.857 121.6 3.3 302 8.5
2007-03-05 08:19:08 51°13.674 2°55.851 120.9 3.1 301 8.6
2007-03-05 08:19:12 51°13.675 2°55.846 120.2 3.1 302 8.6
2007-03-05 08:19:17 51°13.677 2°55.84 119.4 3 301 8.6
2007-03-05 08:19:23 51°13.68 2°55.834 118.7 2.9 300 8.6
2007-03-05 08:19:27 51°13.681 2°55.83 117.5 2.8 300 8.6
2007-03-05 08:19:32 51°13.683 2°55.824 116.8 2.7 298 8.6
2007-03-05 08:19:37 51°13.685 2°55.819 115.6 2.7 299 8.6
2007-03-05 08:19:42 51°13.686 2°55.814 114.6 2.7 298 8.6
2007-03-05 08:19:47 51°13.688 2°55.809 113.7 2.6 298 8.6
2007-03-05 08:19:52 51°13.689 2°55.804 112.8 2.5 297 8.8
2007-03-05 08:19:57 51°13.691 2°55.799 111.7 2.4 296 8.9
2007-03-05 08:20:01 51°13.692 2°55.796 110.8 2.3 294 9.1
2007-03-05 08:20:07 51°13.693 2°55.79 109.6 2.2 295 9.3
2007-03-05 08:20:11 51°13.694 2°55.787 108.6 2 294 9.8
2007-03-05 08:20:16 51°13.695 2°55.784 107.4 1.8 293 10.2
2007-03-05 08:20:21 51°13.696 2°55.78 106.1 1.6 294 10.5
2007-03-05 08:20:26 51°13.697 2°55.777 104.1 1.3 295 10.5
2007-03-05 08:20:31 51°13.698 2°55.775 102.7 0.9 298 10.6
2007-03-05 08:20:36 51°13.698 2°55.774 100.2 0.7 307 10.8
2007-03-05 08:20:41 51°13.698 2°55.773 98 0.4 322 10.8
2007-03-05 08:20:46 51°13.699 2°55.773 95.3 0.3 8 10.8
2007-03-05 08:20:51 51°13.699 2°55.774 92.1 0.5 38 10.8
2007-03-05 08:20:56 51°13.7 2°55.774 87.8 0.5 52 10.7
2007-03-05 08:21:00 51°13.701 2°55.775 83.8 0.6 41 10.7
2007-03-05 08:21:05 51°13.702 2°55.775 80.6 0.4 38 10.8
2007-03-05 08:21:10 51°13.703 2°55.775 78.8 0.4 17 10.9
2007-03-05 08:21:15 51°13.704 2°55.775 76.6 0.3 333 11
2007-03-05 08:21:20 51°13.704 2°55.774 74.6 0.4 302 11.1
2007-03-05 08:21:25 51°13.704 2°55.772 72.5 0.7 279 11.3
2007-03-05 08:21:30 51°13.704 2°55.771 71.2 0.8 276 11.5
2007-03-05 08:21:35 51°13.704 2°55.769 69.5 0.9 268 11.7
2007-03-05 08:21:40 51°13.704 2°55.767 67.4 1 267 11.8
2007-03-05 08:21:45 51°13.703 2°55.765 66 1 259 11.9
2007-03-05 08:21:50 51°13.703 2°55.763 64 1 256 12.3
2007-03-05 08:21:55 51°13.702 2°55.761 62.2 1 251 4.8
2007-03-05 08:22:00 51°13.702 2°55.758 60.5 1.1 251 4.6
2007-03-05 08:22:05 51°13.701 2°55.756 58.4 1.1 246 4.5
2007-03-05 08:22:10 51°13.701 2°55.754 57.2 1.1 243 4.6
2007-03-05 08:22:15 51°13.7 2°55.752 55.6 1 238 11.5
2007-03-05 08:22:20 51°13.699 2°55.75 54.5 1 240 11.4
2007-03-05 08:22:25 51°13.699 2°55.749 53.7 0.8 241 11.3
2007-03-05 08:22:30 51°13.698 2°55.747 52.8 0.7 242 11.2
2007-03-05 08:22:35 51°13.698 2°55.746 51.7 0.6 244 11.2
2007-03-05 08:22:40 51°13.698 2°55.745 50.7 0.4 247 11.1
2007-03-05 08:22:45 51°13.698 2°55.744 49.3 0.3 241 11.2
2007-03-05 08:22:50 51°13.698 2°55.743 47.8 0.2 240 11.3
2007-03-05 08:22:55 51°13.698 2°55.743 46.3 0.1 290 11.3
2007-03-05 08:23:00 51°13.698 2°55.743 44.6 0.2 357 11.3
2007-03-05 08:23:05 51°13.698 2°55.743 42.8 0.2 10 11.3
2007-03-05 08:23:10 51°13.698 2°55.744 40.9 0.2 24 11.2
2007-03-05 08:23:15 51°13.698 2°55.745 38.7 0.4 20 11.3
2007-03-05 08:23:20 51°13.698 2°55.745 36.3 0.5 28 11.2
2007-03-05 08:23:25 51°13.7 2°55.745 33.7 0.6 21 11
2007-03-05 08:23:30 51°13.701 2°55.744 30.8 0.7 13 11.2
2007-03-05 08:23:35 51°13.703 2°55.744 27.8 0.8 13 11.2
2007-03-05 08:23:40 51°13.704 2°55.744 24.5 0.8 11 11.2
2007-03-05 08:23:45 51°13.705 2°55.746 21.1 0.9 7 11.4
2007-03-05 08:23:50 51°13.706 2°55.746 17.4 1 2 11.6
2007-03-05 08:23:55 51°13.707 2°55.747 13.7 1.1 358 11.3
2007-03-05 08:24:00 51°13.708 2°55.746 10.1 0.6 354 11.2
2007-03-05 08:24:05 51°13.711 2°55.746 5.4 1.6 352 11.2
2007-03-05 08:24:10 51°13.714 2°55.745 1.4 2.2 347 11.2
2007-03-05 08:24:15 51°13.717 2°55.743 355 2.5 342 10.8
2007-03-05 08:24:20 51°13.72 2°55.741 348 2.6 335 10.4
2007-03-05 08:24:25 51°13.724 2°55.738 342.4 2.8 333 9.9
2007-03-05 08:24:30 51°13.728 2°55.734 338.5 3.2 330 9.5
2007-03-05 08:24:35 51°13.732 2°55.73 335.2 3.5 329 9.3
2007-03-05 08:24:40 51°13.736 2°55.725 333.4 4 328 9
2007-03-05 08:24:45 51°13.742 2°55.72 332.9 4.4 328 8.6
2007-03-05 08:24:50 51°13.747 2°55.715 333.1 4.8 328 9.2
2007-03-05 08:24:55 51°13.753 2°55.708 333.3 5.2 329 9.3
2007-03-05 08:25:00 51°13.76 2°55.702 333.5 5.6 329 9.3
2007-03-05 08:25:05 51°13.767 2°55.695 333.6 5.8 329 9.1
2007-03-05 08:25:10 51°13.774 2°55.689 333.8 6.1 330 8.3
2007-03-05 08:25:15 51°13.782 2°55.682 334.3 6.4 331 8.3
2007-03-05 08:25:20 51°13.79 2°55.675 334.9 6.6 332 8.4
2007-03-05 08:25:24 51°13.797 2°55.67 335.8 6.8 333 8.6
2007-03-05 08:25:30 51°13.807 2°55.662 336.8 7 334 8.7
2007-03-05 08:25:35 51°13.816 2°55.656 337.8 7.2 335 8.9
2007-03-05 08:25:40 51°13.825 2°55.649 338.2 7.3 335 9.2
2007-03-05 08:25:45 51°13.835 2°55.642 338.5 7.5 335 8.7
2007-03-05 08:25:50 51°13.845 2°55.635 338.7 7.7 335 8.8
2007-03-05 08:25:55 51°13.855 2°55.627 338.7 7.8 335 8.5
2007-03-05 08:26:00 51°13.865 2°55.62 338.8 7.9 335 8.9
2007-03-05 08:26:05 51°13.875 2°55.612 339.1 8 336 9
2007-03-05 08:26:10 51°13.885 2°55.605 339.4 8.1 336 9
2007-03-05 08:26:15 51°13.896 2°55.597 339.3 8.1 336 9.1
2007-03-05 08:26:20 51°13.906 2°55.59 339.9 8.2 337 9.1
2007-03-05 08:26:25 51°13.916 2°55.583 340 8.2 335 9.3
2007-03-05 08:26:30 51°13.927 2°55.575 338.8 8.2 335 9.3
2007-03-05 08:26:35 51°13.937 2°55.567 338 8.2 334 9.3
2007-03-05 08:26:40 51°13.947 2°55.559 337.8 8.2 334 9.3
2007-03-05 08:26:45 51°13.957 2°55.551 337.8 8.3 335 9.1
2007-03-05 08:26:50 51°13.968 2°55.543 337.9 8.2 335 9.1
2007-03-05 08:26:55 51°13.978 2°55.535 338.1 8.2 335 9.1
2007-03-05 08:27:00 51°13.988 2°55.528 338.3 8.2 335 9.2
2007-03-05 08:27:05 51°13.998 2°55.52 338.5 8.2 335 9.2
2007-03-05 08:27:10 51°14.008 2°55.512 338.3 8.2 334 9.2
2007-03-05 08:27:15 51°14.019 2°55.504 338.1 8.2 334 9.3
2007-03-05 08:27:20 51°14.029 2°55.496 337.9 8.2 334 9.3
2007-03-05 08:27:25 51°14.039 2°55.489 338.3 8.1 335 9.2
2007-03-05 08:27:30 51°14.049 2°55.481 338.9 8.2 335 9.2
2007-03-05 08:27:35 51°14.06 2°55.473 338.9 8.2 335 9.3
2007-03-05 08:27:40 51°14.07 2°55.466 338.8 8.1 335 9.3
2007-03-05 08:27:45 51°14.08 2°55.458 338.6 8.1 334 9.3
2007-03-05 08:27:49 51°14.088 2°55.452 338.3 8.1 335 9.3
2007-03-05 08:27:55 51°14.1 2°55.443 338 8.2 334 9.5
2007-03-05 08:28:00 51°14.11 2°55.435 338.1 8.1 335 9.4
2007-03-05 08:28:05 51°14.121 2°55.427 338.7 8.1 335 9.4
2007-03-05 08:28:10 51°14.13 2°55.419 338.1 8.1 333 9.5
2007-03-05 08:28:15 51°14.141 2°55.411 336.6 8.1 333 9.5
2007-03-05 08:28:20 51°14.15 2°55.403 335.9 8 332 9.5
2007-03-05 08:28:25 51°14.16 2°55.395 336 8 333 9.4
2007-03-05 08:28:30 51°14.17 2°55.386 335.7 8 331 9.4
2007-03-05 08:28:35 51°14.18 2°55.377 333.3 8 328 9.5
2007-03-05 08:28:40 51°14.189 2°55.368 331.9 8 329 9.5
2007-03-05 08:28:45 51°14.198 2°55.358 331 8 327 -999
2007-03-05 08:28:50 51°14.207 2°55.348 329.6 8 325 9.7
2007-03-05 08:28:55 51°14.216 2°55.338 327.3 7.9 322 9.6
2007-03-05 08:29:00 51°14.225 2°55.327 325.1 7.9 322 9.8
2007-03-05 08:29:05 51°14.233 2°55.316 323.9 7.9 320 9.6
2007-03-05 08:29:10 51°14.241 2°55.304 323 7.9 319 9.7
2007-03-05 08:29:16 51°14.251 2°55.29 320.7 7.9 316 -999
2007-03-05 08:29:21 51°14.259 2°55.278 319.3 7.9 316 9.8
2007-03-05 08:29:26 51°14.266 2°55.265 318.3 7.9 314 9.8
2007-03-05 08:29:31 51°14.274 2°55.253 317.4 7.9 313 9.8
2007-03-05 08:29:36 51°14.281 2°55.239 315.9 7.9 311 9.8
2007-03-05 08:29:41 51°14.288 2°55.226 314.5 8 311 9.8
2007-03-05 08:29:46 51°14.295 2°55.212 313.4 8 310 9.8
2007-03-05 08:29:51 51°14.303 2°55.199 312.8 8 311 9.5
2007-03-05 08:29:56 51°14.31 2°55.186 313 8 311 9.5
2007-03-05 08:30:01 51°14.317 2°55.173 313.6 8 311 9.2
2007-03-05 08:30:06 51°14.325 2°55.159 314.3 8.1 312 8.9
2007-03-05 08:30:11 51°14.333 2°55.146 315.5 8.3 314 8.8
2007-03-05 08:30:16 51°14.341 2°55.133 316.5 8.5 315 8.9
2007-03-05 08:30:20 51°14.348 2°55.122 317.3 8.6 316 9
2007-03-05 08:30:25 51°14.356 2°55.109 318.1 8.7 316 9
2007-03-05 08:30:30 51°14.365 2°55.095 318.6 8.8 316 8.5
2007-03-05 08:30:35 51°14.374 2°55.082 318.9 9 317 8.7
2007-03-05 08:30:40 51°14.384 2°55.068 319.2 9.1 318 8.9
2007-03-05 08:30:45 51°14.393 2°55.055 320.2 9.1 320 8.8
2007-03-05 08:30:50 51°14.403 2°55.042 321.6 9.2 320 8.9
2007-03-05 08:30:55 51°14.414 2°55.03 323.5 9.3 324 8.8
2007-03-05 08:31:00 51°14.424 2°55.018 326.3 9.3 326 8.7
2007-03-05 08:31:05 51°14.435 2°55.008 329.6 9.3 329 8.6
2007-03-05 08:31:10 51°14.447 2°54.998 332.4 9.4 332 8.3
2007-03-05 08:31:15 51°14.458 2°54.989 336 9.4 334 8.3
2007-03-05 08:31:20 51°14.47 2°54.98 338.3 9.4 335 8.3
2007-03-05 08:31:25 51°14.482 2°54.971 339 9.5 334 8.3
2007-03-05 08:31:30 51°14.494 2°54.962 339.2 9.5 334 8.1
2007-03-05 08:31:35 51°14.505 2°54.953 339 9.5 334 8
2007-03-05 08:31:40 51°14.517 2°54.943 338.8 9.5 333 8
2007-03-05 08:31:45 51°14.529 2°54.933 338.2 9.5 333 8
2007-03-05 08:31:50 51°14.541 2°54.924 337.5 9.6 332 7.9
2007-03-05 08:31:55 51°14.552 2°54.914 337.1 9.6 332 7.9
2007-03-05 08:32:00 51°14.564 2°54.904 336.7 9.6 332 7.9
2007-03-05 08:32:05 51°14.576 2°54.894 336.4 9.6 332 7.8
2007-03-05 08:32:09 51°14.585 2°54.886 336.1 9.6 332 7.8
2007-03-05 08:32:15 51°14.599 2°54.873 335.5 9.6 331 7.8
2007-03-05 08:32:19 51°14.608 2°54.865 334.7 9.5 329 7.8
2007-03-05 08:32:24 51°14.619 2°54.854 333.7 9.5 329 7.7
2007-03-05 08:32:29 51°14.63 2°54.843 333.8 9.4 328 7.7
2007-03-05 08:32:35 51°14.643 2°54.83 333.2 9.4 327 7.7
2007-03-05 08:32:40 51°14.654 2°54.818 332.7 9.4 327 7.6
2007-03-05 08:32:44 51°14.663 2°54.809 332.5 9.4 327 7.6
2007-03-05 08:32:49 51°14.674 2°54.797 332.5 9.4 327 7.6
2007-03-05 08:32:54 51°14.685 2°54.787 332.8 9.4 328 7.7
2007-03-05 08:32:59 51°14.696 2°54.776 333.3 9.4 328 7.7
2007-03-05 08:33:04 51°14.707 2°54.765 333.6 9.5 328 7.7
2007-03-05 08:33:09 51°14.718 2°54.754 333.7 9.5 328 7.8
2007-03-05 08:33:15 51°14.732 2°54.74 333.6 9.6 328 7.8
2007-03-05 08:33:19 51°14.741 2°54.731 333.7 9.8 328 7.8
2007-03-05 08:33:24 51°14.753 2°54.72 333.9 10 329 7.8
2007-03-05 08:33:29 51°14.765 2°54.708 333.8 10.2 329 7.9
2007-03-05 08:33:35 51°14.78 2°54.694 334.1 10.4 330 8.1
2007-03-05 08:33:39 51°14.79 2°54.685 334.5 10.5 329 7.8
2007-03-05 08:33:44 51°14.803 2°54.673 334.5 10.6 330 7.9
2007-03-05 08:33:50 51°14.818 2°54.659 334.5 10.8 331 7.9
2007-03-05 08:33:55 51°14.832 2°54.647 334.7 11.1 330 8.1
2007-03-05 08:33:59 51°14.842 2°54.637 334.6 11.3 330 8
2007-03-05 08:34:04 51°14.856 2°54.624 334.5 11.6 330 8
2007-03-05 08:34:09 51°14.87 2°54.611 334.1 11.9 329 8
2007-03-05 08:34:15 51°14.887 2°54.594 334.6 11.9 329 7.8
2007-03-05 08:34:19 51°14.899 2°54.584 334.5 12.1 329 7.8
2007-03-05 08:34:24 51°14.913 2°54.57 334.5 12.2 329 7.3
2007-03-05 08:34:29 51°14.928 2°54.556 334.6 12.2 329 7.5
2007-03-05 08:34:35 51°14.945 2°54.538 334.1 12.4 328 7.4
2007-03-05 08:34:39 51°14.957 2°54.527 333.8 12.4 328 7.5
2007-03-05 08:34:44 51°14.971 2°54.512 333.3 12.4 327 7.1
2007-03-05 08:34:49 51°14.985 2°54.497 332.5 12.3 327 6.9
2007-03-05 08:34:55 51°15.003 2°54.479 332.3 12.2 327 6.8
2007-03-05 08:35:00 51°15.016 2°54.464 331.9 12.2 325 6.8
2007-03-05 08:35:04 51°15.028 2°54.452 330.9 12.1 325 6.8
2007-03-05 08:35:09 51°15.041 2°54.436 330.8 12.1 325 6.8
2007-03-05 08:35:15 51°15.058 2°54.418 330.4 12.1 326 6.6
2007-03-05 08:35:20 51°15.071 2°54.403 330.1 11.9 326 6.7
2007-03-05 08:35:24 51°15.082 2°54.391 330.6 12.2 324 6.5
2007-03-05 08:35:29 51°15.096 2°54.375 330.3 12.3 324 6.8
2007-03-05 08:35:35 51°15.113 2°54.357 330.3 12.2 326 6.7
2007-03-05 08:35:40 51°15.127 2°54.342 331.4 12.3 327 6.9
2007-03-05 08:35:45 51°15.141 2°54.327 332.3 12.1 327 7.1
2007-03-05 08:35:49 51°15.153 2°54.316 334.2 12.3 330 7.3
2007-03-05 08:35:54 51°15.168 2°54.302 334.8 12.5 329 7.1
2007-03-05 08:35:59 51°15.183 2°54.288 334.5 12.5 329 7.1
2007-03-05 08:36:05 51°15.201 2°54.27 334.3 12.6 328 7.6
2007-03-05 08:36:10 51°15.216 2°54.255 334.2 12.6 328 7.5
2007-03-05 08:36:15 51°15.23 2°54.241 334 12.5 328 7.1
2007-03-05 08:36:19 51°15.242 2°54.229 333.8 12.6 327 -999
2007-03-05 08:36:24 51°15.257 2°54.213 332.9 12.6 327 7.5
2007-03-05 08:36:29 51°15.271 2°54.198 332.6 12.7 327 7.6
2007-03-05 08:36:35 51°15.289 2°54.179 331.8 12.4 327 7.1
2007-03-05 08:36:40 51°15.304 2°54.164 332.7 12.7 328 7.4
2007-03-05 08:36:44 51°15.315 2°54.152 332.5 12.8 326 7.5
2007-03-05 08:36:49 51°15.33 2°54.137 332.8 12.7 328 7.4
2007-03-05 08:36:55 51°15.349 2°54.118 333.1 12.8 328 7.7
2007-03-05 08:36:59 51°15.361 2°54.107 333.8 12.8 328 7.7
2007-03-05 08:37:05 51°15.379 2°54.089 334.4 12.9 328 7.8
2007-03-05 08:37:09 51°15.391 2°54.077 334.4 12.8 328 8
2007-03-05 08:37:15 51°15.409 2°54.059 334.3 12.9 328 8.1
2007-03-05 08:37:20 51°15.424 2°54.043 333.9 12.9 328 8
2007-03-05 08:37:24 51°15.437 2°54.031 334.5 13.1 328 8.2
2007-03-05 08:37:29 51°15.452 2°54.016 334.3 13 329 8.1
2007-03-05 08:37:34 51°15.467 2°54 334.4 13 326 8.1
2007-03-05 08:37:39 51°15.483 2°53.986 334.8 13 329 8.2
2007-03-05 08:37:45 51°15.501 2°53.968 334.7 13 329 8.3
2007-03-05 08:37:49 51°15.514 2°53.955 335.3 13.2 328 8.4
2007-03-05 08:37:55 51°15.532 2°53.937 335.2 13.3 330 8.9
2007-03-05 08:37:59 51°15.545 2°53.925 334.5 13 328 8.1
2007-03-05 08:38:04 51°15.56 2°53.91 335.7 13.1 330 8.4
2007-03-05 08:38:10 51°15.579 2°53.891 335.8 13.1 327 8.4
2007-03-05 08:38:15 51°15.594 2°53.877 335.4 13.1 329 8.5
2007-03-05 08:38:19 51°15.606 2°53.864 335.1 13.1 327 8.6
2007-03-05 08:38:25 51°15.625 2°53.846 333.9 13.2 328 8.9
2007-03-05 08:38:30 51°15.64 2°53.83 334.3 13.1 327 8.8
2007-03-05 08:38:35 51°15.655 2°53.814 333.8 13.1 326 8.8
2007-03-05 08:38:39 51°15.668 2°53.802 334 13.3 328 9
2007-03-05 08:38:44 51°15.683 2°53.786 333.6 12.9 327 8.9
2007-03-05 08:38:50 51°15.701 2°53.768 334.5 13 328 8.9
2007-03-05 08:38:55 51°15.717 2°53.752 334.5 13.1 327 9.2
2007-03-05 08:39:00 51°15.732 2°53.736 334.5 12.9 327 8.8
2007-03-05 08:39:04 51°15.744 2°53.724 334.5 13.1 329 9
2007-03-05 08:39:09 51°15.759 2°53.709 334.8 13.1 328 8.8
2007-03-05 08:39:14 51°15.775 2°53.695 334.5 13 330 9.2
2007-03-05 08:39:19 51°15.791 2°53.681 334.8 12.6 331 8.7
2007-03-05 08:39:25 51°15.808 2°53.662 335.3 12.9 327 9
2007-03-05 08:39:29 51°15.821 2°53.65 335.3 13 328 9.2
2007-03-05 08:39:35 51°15.839 2°53.631 334.8 12.9 327 9.2
2007-03-05 08:39:40 51°15.854 2°53.616 334.3 12.9 327 9.6
2007-03-05 08:39:44 51°15.866 2°53.604 334.2 12.9 327 9.6
2007-03-05 08:39:50 51°15.885 2°53.586 334.5 12.9 328 9.8
2007-03-05 08:39:55 51°15.9 2°53.57 334 13 327 9.8
2007-03-05 08:39:59 51°15.912 2°53.557 334.2 13 326 9.9
2007-03-05 08:40:05 51°15.93 2°53.538 334 13 327 9.8
2007-03-05 08:40:09 51°15.942 2°53.526 334.1 13 327 9.9
2007-03-05 08:40:15 51°15.96 2°53.507 334 12.9 327 10
2007-03-05 08:40:19 51°15.972 2°53.495 333.9 13 328 9.8
2007-03-05 08:40:24 51°15.987 2°53.48 334.8 13 327 9.9
2007-03-05 08:40:29 51°16.002 2°53.464 333.1 13 327 9.9
2007-03-05 08:40:34 51°16.018 2°53.449 334.4 12.9 326 9.8
2007-03-05 08:40:39 51°16.032 2°53.433 333.8 12.9 327 10
2007-03-05 08:40:44 51°16.047 2°53.417 333.8 12.8 325 10
2007-03-05 08:40:50 51°16.065 2°53.399 333.8 12.9 328 10.2
2007-03-05 08:40:55 51°16.08 2°53.382 333.3 12.9 325 10.2
2007-03-05 08:40:59 51°16.092 2°53.37 333.7 12.8 327 10.1
2007-03-05 08:41:04 51°16.107 2°53.354 333.6 13 326 10.3
2007-03-05 08:41:09 51°16.122 2°53.338 333.8 12.9 327 10.2
2007-03-05 08:41:15 51°16.14 2°53.319 333.8 13 326 10.4
2007-03-05 08:41:19 51°16.152 2°53.307 333.5 12.9 327 10.2
2007-03-05 08:41:24 51°16.167 2°53.291 333.8 13 326 10.2
2007-03-05 08:41:29 51°16.182 2°53.275 333.8 12.9 327 10.2
2007-03-05 08:41:34 51°16.197 2°53.259 334.1 12.9 327 10.3
2007-03-05 08:41:39 51°16.212 2°53.244 334.5 13 326 10.3
2007-03-05 08:41:44 51°16.227 2°53.228 334.5 12.8 328 10.2
2007-03-05 08:41:49 51°16.242 2°53.213 334.9 13.1 326 10.4
2007-03-05 08:41:55 51°16.26 2°53.194 334.3 13.1 327 10.4
2007-03-05 08:42:00 51°16.275 2°53.178 334.1 13 327 10.2
2007-03-05 08:42:04 51°16.287 2°53.166 334.5 13 327 10.3
2007-03-05 08:42:10 51°16.305 2°53.148 334.7 12.8 328 10.2
2007-03-05 08:42:15 51°16.32 2°53.132 334.4 12.8 327 10.2
2007-03-05 08:42:19 51°16.332 2°53.12 335.1 12.9 328 10.4
2007-03-05 08:42:25 51°16.351 2°53.102 335.1 12.8 328 10.3
2007-03-05 08:42:29 51°16.363 2°53.09 334.7 12.8 329 10.1
2007-03-05 08:42:35 51°16.381 2°53.071 335.3 12.9 327 10.4
2007-03-05 08:42:39 51°16.393 2°53.059 334.7 12.9 327 10.4
2007-03-05 08:42:44 51°16.408 2°53.043 333.9 12.8 326 10.3
2007-03-05 08:42:49 51°16.423 2°53.028 334 12.9 328 10.5
2007-03-05 08:42:54 51°16.438 2°53.013 334.5 12.9 330 10.6
2007-03-05 08:42:59 51°16.454 2°52.999 336.1 12.8 331 10.4
2007-03-05 08:43:04 51°16.47 2°52.987 338.8 12.9 334 10.5
2007-03-05 08:43:09 51°16.486 2°52.975 340.5 12.7 336 10.3
2007-03-05 08:43:15 51°16.506 2°52.964 343.5 12.7 341 9.9
2007-03-05 08:43:19 51°16.519 2°52.957 346.5 12.8 343 10.1
2007-03-05 08:43:24 51°16.536 2°52.948 348.1 12.9 343 9.9
2007-03-05 08:43:29 51°16.554 2°52.941 349.2 12.8 344 10
2007-03-05 08:43:35 51°16.574 2°52.932 350.5 12.8 344 10
2007-03-05 08:43:40 51°16.591 2°52.925 350.7 12.7 345 9.9
2007-03-05 08:43:44 51°16.605 2°52.919 350.3 12.7 344 9.5
2007-03-05 08:43:49 51°16.622 2°52.911 350.1 12.7 343 9.6
2007-03-05 08:43:54 51°16.638 2°52.901 348.3 12.8 342 9.5
2007-03-05 08:44:00 51°16.658 2°52.89 346.9 12.8 340 9.4
2007-03-05 08:44:05 51°16.675 2°52.881 346.1 12.8 341 9.5
2007-03-05 08:44:09 51°16.689 2°52.872 345.4 12.8 340 9.6
2007-03-05 08:44:14 51°16.705 2°52.862 345.3 12.9 339 9.6
2007-03-05 08:44:19 51°16.722 2°52.852 344.3 12.7 339 9.4
2007-03-05 08:44:25 51°16.741 2°52.84 344.8 12.7 340 9.1
2007-03-05 08:44:30 51°16.758 2°52.83 345 12.7 340 9
2007-03-05 08:44:35 51°16.774 2°52.821 344.7 12.3 339 8.3
2007-03-05 08:44:39 51°16.786 2°52.812 344.9 12.3 336 7.7
2007-03-05 08:44:44 51°16.802 2°52.801 344.5 12.3 338 7.7
2007-03-05 08:44:49 51°16.818 2°52.791 344.1 12.3 337 7.8
2007-03-05 08:44:55 51°16.837 2°52.779 343.9 12.2 338 7.7
2007-03-05 08:44:59 51°16.849 2°52.771 344.4 12.2 338 7.8
2007-03-05 08:45:04 51°16.865 2°52.761 344.6 12.3 338 7.9
2007-03-05 08:45:09 51°16.881 2°52.75 344.4 12.3 336 7.9
2007-03-05 08:45:15 51°16.9 2°52.738 343.7 12.2 338 8
2007-03-05 08:45:19 51°16.912 2°52.729 343.8 12.2 336 8.2
2007-03-05 08:45:24 51°16.928 2°52.719 344.2 12.3 337 8
2007-03-05 08:45:30 51°16.947 2°52.707 343.5 12.3 338 8.2
2007-03-05 08:45:35 51°16.963 2°52.696 344 12.5 337 8.1
2007-03-05 08:45:39 51°16.976 2°52.688 344.2 12.5 339 8.3
2007-03-05 08:45:44 51°16.992 2°52.679 345.1 12.4 338 8.2
2007-03-05 08:45:49 51°17.008 2°52.668 344.7 12.6 338 8.2
2007-03-05 08:45:55 51°17.028 2°52.655 345 12.8 336 8.3
2007-03-05 08:46:00 51°17.044 2°52.646 343.9 12.6 340 7.9
2007-03-05 08:46:04 51°17.057 2°52.637 345.7 12.8 336 8.1
2007-03-05 08:46:09 51°17.074 2°52.626 344.1 12.6 339 7.9
2007-03-05 08:46:15 51°17.093 2°52.613 344.5 12.5 338 7.9
2007-03-05 08:46:20 51°17.109 2°52.603 344.2 12.4 338 8
2007-03-05 08:46:24 51°17.121 2°52.595 344.6 12.3 339 7.9
2007-03-05 08:46:29 51°17.137 2°52.585 345.4 12.4 338 8
2007-03-05 08:46:34 51°17.153 2°52.575 344.8 12.3 338 7.9
2007-03-05 08:46:39 51°17.169 2°52.565 345.3 12.4 338 8.1
2007-03-05 08:46:45 51°17.189 2°52.553 345.4 12.5 339 7.8
2007-03-05 08:46:49 51°17.202 2°52.545 345.6 12.6 338 8.2
2007-03-05 08:46:55 51°17.221 2°52.533 345 12.5 339 8.3
2007-03-05 08:46:59 51°17.234 2°52.524 345.1 12.6 337 8.4
2007-03-05 08:47:04 51°17.25 2°52.514 344.3 12.6 338 8.4
2007-03-05 08:47:10 51°17.27 2°52.501 344.8 12.6 336 8.6
2007-03-05 08:47:15 51°17.286 2°52.491 344.2 12.7 339 8.6
2007-03-05 08:47:19 51°17.299 2°52.482 344.4 12.6 336 8.7
2007-03-05 08:47:24 51°17.315 2°52.472 344.2 12.5 339 8.3
2007-03-05 08:47:29 51°17.331 2°52.46 344.7 12.8 335 8.7
2007-03-05 08:47:35 51°17.351 2°52.448 343.5 12.6 338 8.5
2007-03-05 08:47:40 51°17.367 2°52.436 344.2 12.5 337 8.4
2007-03-05 08:47:44 51°17.38 2°52.428 344.6 12.7 336 8.8
2007-03-05 08:47:49 51°17.396 2°52.417 343.9 12.6 337 8.8
2007-03-05 08:47:54 51°17.412 2°52.406 344.4 12.6 336 8.8
2007-03-05 08:47:59 51°17.428 2°52.396 344.5 12.6 339 9.1
2007-03-05 08:48:04 51°17.445 2°52.385 344.7 12.5 336 8.4
2007-03-05 08:48:09 51°17.46 2°52.375 344.8 12.5 339 8.6
2007-03-05 08:48:15 51°17.48 2°52.362 344.7 12.6 338 8.8
2007-03-05 08:48:20 51°17.496 2°52.351 344.7 12.6 337 8.8
2007-03-05 08:48:24 51°17.509 2°52.343 344.6 12.6 337 9
2007-03-05 08:48:29 51°17.525 2°52.331 344.1 12.6 336 8.8
2007-03-05 08:48:34 51°17.541 2°52.321 343.8 12.7 338 9.1
2007-03-05 08:48:39 51°17.557 2°52.31 343.4 12.7 336 8.8
2007-03-05 08:48:44 51°17.574 2°52.3 344.2 12.5 339 8.6
2007-03-05 08:48:49 51°17.589 2°52.288 345.1 12.4 338 8.2
2007-03-05 08:48:55 51°17.609 2°52.277 345.8 12.7 338 8.6
2007-03-05 08:48:59 51°17.622 2°52.268 345.2 12.7 337 8.7
2007-03-05 08:49:04 51°17.638 2°52.258 345.1 12.2 340 8.5
2007-03-05 08:49:10 51°17.657 2°52.246 345.7 12.1 337 8
2007-03-05 08:49:15 51°17.673 2°52.238 346 12.4 341 8.8
2007-03-05 08:49:19 51°17.686 2°52.228 345 12.5 335 8.5
2007-03-05 08:49:25 51°17.705 2°52.216 344.9 12.4 337 8.6
2007-03-05 08:49:29 51°17.718 2°52.207 343.8 12.5 337 9.1
2007-03-05 08:49:35 51°17.737 2°52.194 343.3 12.4 335 9.1
2007-03-05 08:49:39 51°17.75 2°52.187 343.5 12.3 339 8.8
2007-03-05 08:49:44 51°17.765 2°52.174 343.3 12.3 337 8.9
2007-03-05 08:49:50 51°17.784 2°52.161 344.3 12.5 336 9
2007-03-05 08:49:55 51°17.8 2°52.151 343.9 12.5 339 9
2007-03-05 08:49:59 51°17.813 2°52.142 344 12.6 334 9
2007-03-05 08:50:04 51°17.829 2°52.131 343.3 12.5 338 9.1
2007-03-05 08:50:09 51°17.844 2°52.119 343.1 12.4 335 8.8
2007-03-05 08:50:15 51°17.863 2°52.105 343.7 12.5 335 8.7
2007-03-05 08:50:19 51°17.875 2°52.095 341.6 12.5 335 9.1
2007-03-05 08:50:24 51°17.892 2°52.085 342.1 12.3 336 8.5
2007-03-05 08:50:29 51°17.907 2°52.072 342.4 12.4 334 8.8
2007-03-05 08:50:35 51°17.925 2°52.058 342.5 12.3 333 8.6
2007-03-05 08:50:40 51°17.941 2°52.047 340.9 12.2 337 7.8
2007-03-05 08:50:45 51°17.956 2°52.035 341.8 12.4 333 8.7
2007-03-05 08:50:49 51°17.969 2°52.027 342.8 12.2 339 9
2007-03-05 08:50:55 51°17.987 2°52.013 341.8 12.1 335 8.4
2007-03-05 08:51:00 51°18.003 2°52.002 342.4 12.3 334 8.5
2007-03-05 08:51:04 51°18.015 2°51.993 341.4 12.3 334 8.8
2007-03-05 08:51:09 51°18.03 2°51.98 339.4 12.2 333 8.9
2007-03-05 08:51:14 51°18.045 2°51.968 341.2 12.5 332 9.2
2007-03-05 08:51:19 51°18.06 2°51.956 340.4 12.2 335 9.6
2007-03-05 08:51:25 51°18.078 2°51.941 340.9 12.3 332 9.4
2007-03-05 08:51:29 51°18.091 2°51.931 341.2 12.3 334 9.6
2007-03-05 08:51:34 51°18.107 2°51.92 341.9 12.6 334 9.9
2007-03-05 08:51:39 51°18.122 2°51.908 340.7 12.4 335 9.6
2007-03-05 08:51:44 51°18.138 2°51.897 342.2 12.5 334 9.4
2007-03-05 08:51:50 51°18.157 2°51.882 341.1 12.4 336 9.4
2007-03-05 08:51:55 51°18.172 2°51.87 341.3 12.5 334 9.4
2007-03-05 08:51:59 51°18.184 2°51.86 341.1 12.6 335 9.8
2007-03-05 08:52:04 51°18.2 2°51.847 340.5 12.6 333 9.5
2007-03-05 08:52:09 51°18.215 2°51.835 340.4 12.5 332 9.6
2007-03-05 08:52:15 51°18.234 2°51.819 340.6 12.6 332 9.9
2007-03-05 08:52:19 51°18.246 2°51.81 340.8 12.6 333 10.1
2007-03-05 08:52:24 51°18.262 2°51.797 341 12.6 334 10.4
2007-03-05 08:52:29 51°18.278 2°51.784 340.7 12.6 334 10.3
2007-03-05 08:52:35 51°18.297 2°51.769 340.9 12.8 332 10.8
2007-03-05 08:52:39 51°18.309 2°51.76 340.4 12.6 335 10.3
2007-03-05 08:52:44 51°18.325 2°51.747 341.1 12.5 333 10.2
2007-03-05 08:52:49 51°18.34 2°51.735 341.5 12.4 334 10
2007-03-05 08:52:54 51°18.356 2°51.722 341.5 12.5 333 10.3
2007-03-05 08:53:00 51°18.374 2°51.707 340 12.6 334 10.3
2007-03-05 08:53:04 51°18.387 2°51.697 340.4 12.7 332 10.3
2007-03-05 08:53:09 51°18.402 2°51.684 340.7 12.7 335 10.6
2007-03-05 08:53:15 51°18.421 2°51.669 340.8 12.7 334 10.9
2007-03-05 08:53:19 51°18.434 2°51.659 341.9 12.5 333 10.8
2007-03-05 08:53:24 51°18.449 2°51.647 341.3 12.5 334 11
2007-03-05 08:53:29 51°18.465 2°51.635 341.2 12.7 333 11.3
2007-03-05 08:53:35 51°18.484 2°51.62 340.8 12.6 333 11.4
2007-03-05 08:53:39 51°18.496 2°51.609 341.3 12.8 332 11.6
2007-03-05 08:53:45 51°18.515 2°51.594 340.7 12.7 334 11.7
2007-03-05 08:53:49 51°18.527 2°51.584 341.3 12.8 333 12.1
2007-03-05 08:53:54 51°18.543 2°51.572 341.8 12.5 334 12.1
2007-03-05 08:53:59 51°18.558 2°51.559 340.7 12.2 331 11.9
2007-03-05 08:54:04 51°18.573 2°51.547 340.2 11.7 332 11.9
2007-03-05 08:54:10 51°18.589 2°51.533 340.1 11.2 332 12
2007-03-05 08:54:15 51°18.603 2°51.521 340.5 11.1 332 12.4
2007-03-05 08:54:19 51°18.613 2°51.513 340.3 10.7 331 12.5
2007-03-05 08:54:24 51°18.626 2°51.502 340.4 10.4 332 12.3
2007-03-05 08:54:29 51°18.638 2°51.491 339.2 10.2 331 12.4
2007-03-05 08:54:35 51°18.652 2°51.477 338.3 10 329 12.4
2007-03-05 08:54:40 51°18.664 2°51.466 338.2 9.8 330 12.5
2007-03-05 08:54:44 51°18.673 2°51.457 337.5 9.9 328 12.8
2007-03-05 08:54:49 51°18.685 2°51.445 337.3 9.6 329 12.8
2007-03-05 08:54:55 51°18.699 2°51.432 336.7 9.7 328 12.9
2007-03-05 08:55:00 51°18.711 2°51.422 336.9 9.6 331 12.9
2007-03-05 08:55:04 51°18.719 2°51.412 336.4 9.7 325 12.9
2007-03-05 08:55:09 51°18.73 2°51.401 335.1 9.5 329 12.4
2007-03-05 08:55:14 51°18.741 2°51.39 335.3 9.3 327 12.2
2007-03-05 08:55:19 51°18.752 2°51.379 336.6 9.3 329 12.4
2007-03-05 08:55:25 51°18.765 2°51.366 336.6 9.3 327 12.7
2007-03-05 08:55:29 51°18.773 2°51.358 337 9.4 328 13.3
2007-03-05 08:55:35 51°18.787 2°51.346 336.3 9 331 13.4
2007-03-05 08:55:40 51°18.797 2°51.335 338.2 8.9 329 13.4
2007-03-05 08:55:44 51°18.806 2°51.327 337.9 9.1 330 13.5
2007-03-05 08:55:49 51°18.817 2°51.317 337.6 9.1 329 13.5
2007-03-05 08:55:54 51°18.828 2°51.307 337.5 9 329 13.3
2007-03-05 08:55:59 51°18.838 2°51.296 337.6 9.1 327 13.2
2007-03-05 08:56:05 51°18.851 2°51.284 336.6 9.1 330 13.6
2007-03-05 08:56:09 51°18.859 2°51.275 336.7 9.1 328 13.4
2007-03-05 08:56:15 51°18.872 2°51.263 337.5 8.9 328 13.3
2007-03-05 08:56:19 51°18.88 2°51.255 337 8.9 328 13.2
2007-03-05 08:56:24 51°18.891 2°51.244 337.4 9 328 13.3
2007-03-05 08:56:30 51°18.903 2°51.231 337.2 9 328 13.4
2007-03-05 08:56:35 51°18.914 2°51.221 336.4 9.1 328 13.6
2007-03-05 08:56:39 51°18.922 2°51.212 336.7 9.2 328 13.8
2007-03-05 08:56:44 51°18.933 2°51.201 336.6 9 327 13.6
2007-03-05 08:56:49 51°18.944 2°51.191 336.3 9 328 13.6
2007-03-05 08:56:55 51°18.957 2°51.178 337 9 329 13.8
2007-03-05 08:56:59 51°18.965 2°51.17 337.5 9.1 328 13.7
2007-03-05 08:57:04 51°18.976 2°51.159 337 9.1 328 13.7
2007-03-05 08:57:09 51°18.987 2°51.149 337.1 8.9 330 13.3
2007-03-05 08:57:15 51°19 2°51.138 337.7 8.9 331 13.6
2007-03-05 08:57:19 51°19.008 2°51.13 338.3 8.9 329 13.4
2007-03-05 08:57:24 51°19.02 2°51.121 338.9 8.9 330 13.1
2007-03-05 08:57:29 51°19.03 2°51.11 338.7 8.9 329 12.9
2007-03-05 08:57:34 51°19.04 2°51.1 338.3 9 328 13.1
2007-03-05 08:57:39 51°19.051 2°51.089 337.9 9.1 327 13.5
2007-03-05 08:57:44 51°19.062 2°51.078 336.7 9 328 13.7
2007-03-05 08:57:49 51°19.072 2°51.068 336.7 9.1 328 14
2007-03-05 08:57:55 51°19.085 2°51.055 336 9.1 328 14
2007-03-05 08:57:59 51°19.094 2°51.046 336.5 9.2 326 14.3
2007-03-05 08:58:04 51°19.104 2°51.035 336.7 9.1 326 13.9
2007-03-05 08:58:09 51°19.115 2°51.024 335.7 9.1 326 14
2007-03-05 08:58:14 51°19.125 2°51.013 336 9 328 13.8
2007-03-05 08:58:19 51°19.136 2°51.002 336.5 9.1 327 13.7
2007-03-05 08:58:25 51°19.149 2°50.989 336 9.2 329 13.7
2007-03-05 08:58:29 51°19.157 2°50.98 335.8 9.3 328 13.6
2007-03-05 08:58:35 51°19.17 2°50.968 335.8 9.1 330 13.4
2007-03-05 08:58:39 51°19.178 2°50.958 336.3 9 326 13.3
2007-03-05 08:58:44 51°19.188 2°50.949 335.6 9.1 329 13.7
2007-03-05 08:58:49 51°19.199 2°50.938 334.4 8.8 329 13.4
2007-03-05 08:58:54 51°19.209 2°50.928 336.8 8.8 329 13.3
2007-03-05 08:58:59 51°19.22 2°50.918 336.8 8.9 329 13.6
2007-03-05 08:59:04 51°19.23 2°50.907 336.9 8.8 328 13.7
2007-03-05 08:59:09 51°19.24 2°50.897 337.5 8.5 325 13.8
2007-03-05 08:59:15 51°19.251 2°50.885 336.5 7.8 328 13.8
2007-03-05 08:59:19 51°19.258 2°50.878 336 7.4 325 13.8
2007-03-05 08:59:24 51°19.266 2°50.869 333.5 6.8 322 13.5
2007-03-05 08:59:29 51°19.272 2°50.86 331.7 6.4 321 13.5
2007-03-05 08:59:35 51°19.28 2°50.849 330.2 5.9 319 13.5
2007-03-05 08:59:39 51°19.284 2°50.843 327.8 5.5 318 13.4
2007-03-05 08:59:44 51°19.289 2°50.835 325.6 4.8 314 13.3
2007-03-05 08:59:49 51°19.293 2°50.828 323.7 3.9 313 13.2
2007-03-05 08:59:54 51°19.296 2°50.823 322.2 3.1 306 13
2007-03-05 08:59:59 51°19.298 2°50.818 320.8 2.5 307 13
2007-03-05 09:00:04 51°19.3 2°50.814 319.3 2.2 307 13.1
2007-03-05 09:00:09 51°19.301 2°50.81 317.3 1.8 302 13.3
2007-03-05 09:00:15 51°19.302 2°50.807 315 1.4 290 13.3
2007-03-05 09:00:19 51°19.303 2°50.805 313.5 1 292 13.3
2007-03-05 09:00:24 51°19.304 2°50.803 311.4 0.7 299 13.4
2007-03-05 09:00:30 51°19.304 2°50.802 310.5 0.5 292 13.5
2007-03-05 09:00:35 51°19.304 2°50.801 309.5 0.3 288 13.4
2007-03-05 09:00:39 51°19.304 2°50.802 310.1 0.3 323 13.4
2007-03-05 09:00:45 51°19.304 2°50.801 311.3 0.3 355 13.3
2007-03-05 09:00:49 51°19.304 2°50.802 312 0.1 194 13.2
2007-03-05 09:00:55 51°19.304 2°50.802 313.8 0.2 169 12.9
2007-03-05 09:00:59 51°19.304 2°50.802 316.6 0.3 31 13.1
2007-03-05 09:01:04 51°19.304 2°50.802 317.9 0.2 156 13.2
2007-03-05 09:01:10 51°19.304 2°50.802 319.1 0.1 110 13.2
2007-03-05 09:01:15 51°19.304 2°50.803 321.3 0.2 54 13.2
2007-03-05 09:01:19 51°19.304 2°50.803 323.6 0.3 55 13.4
2007-03-05 09:01:24 51°19.304 2°50.803 325.2 0.2 145 13.4
2007-03-05 09:01:29 51°19.304 2°50.804 326.6 0.3 74 13.3
2007-03-05 09:01:35 51°19.304 2°50.805 328.2 0.4 75 13.4
2007-03-05 09:01:39 51°19.303 2°50.805 329.1 0.3 110 13.4
2007-03-05 09:01:44 51°19.303 2°50.806 329.9 0.5 130 13.3
2007-03-05 09:01:49 51°19.303 2°50.808 332.4 0.6 116 13.3
2007-03-05 09:01:55 51°19.302 2°50.808 334.6 0.5 132 13.3
2007-03-05 09:02:00 51°19.302 2°50.809 336.4 0.5 147 13.4
2007-03-05 09:02:04 51°19.302 2°50.811 338.7 0.4 140 13.4
2007-03-05 09:02:09 51°19.301 2°50.812 341 0.6 125 13.4
2007-03-05 09:02:14 51°19.3 2°50.812 343.2 0.6 135 13.5
2007-03-05 09:02:20 51°19.3 2°50.814 344.7 0.6 135 13.5
2007-03-05 09:02:25 51°19.299 2°50.815 347 0.7 124 13.4
2007-03-05 09:02:29 51°19.299 2°50.815 348.8 0.6 154 13.4
2007-03-05 09:02:34 51°19.298 2°50.816 350.4 0.5 150 13.4
2007-03-05 09:02:39 51°19.298 2°50.817 351.5 0.6 155 13.4
2007-03-05 09:02:45 51°19.297 2°50.817 352.7 0.6 146 13.4
2007-03-05 09:02:50 51°19.296 2°50.818 353.3 0.6 150 13.4
2007-03-05 09:02:55 51°19.295 2°50.819 353.9 0.5 173 13.3
2007-03-05 09:02:59 51°19.295 2°50.82 354.8 0.5 139 13.2
2007-03-05 09:03:04 51°19.294 2°50.82 355.6 0.7 135 13
2007-03-05 09:03:09 51°19.293 2°50.82 355 0.6 146 12.8
2007-03-05 09:03:15 51°19.293 2°50.821 355.1 0.6 172 12.9
2007-03-05 09:03:19 51°19.292 2°50.822 356.1 0.7 140 13.1
2007-03-05 09:03:24 51°19.291 2°50.822 356.3 0.6 158 13.2
2007-03-05 09:03:30 51°19.29 2°50.823 356.3 0.6 159 13.3
2007-03-05 09:03:35 51°19.29 2°50.823 356.5 0.5 161 13.5
2007-03-05 09:03:39 51°19.29 2°50.824 356.1 0.5 154 13.5
2007-03-05 09:03:44 51°19.289 2°50.824 355.6 0.5 146 13.6
2007-03-05 09:03:49 51°19.288 2°50.824 355.1 0.5 141 13.5
2007-03-05 09:03:55 51°19.287 2°50.825 354.2 0.6 162 13.4
2007-03-05 09:03:59 51°19.287 2°50.825 354.3 0.7 149 13.2
2007-03-05 09:04:04 51°19.286 2°50.825 354.3 0.5 177 13.2
2007-03-05 09:04:09 51°19.285 2°50.825 353.5 0.5 181 13.2
2007-03-05 09:04:15 51°19.284 2°50.826 352.8 0.6 163 13.2
2007-03-05 09:04:20 51°19.284 2°50.826 352.5 0.6 176 13.2
2007-03-05 09:04:24 51°19.283 2°50.826 352 0.5 169 13.2
2007-03-05 09:04:29 51°19.283 2°50.827 351.2 0.6 192 13.2
2007-03-05 09:04:34 51°19.282 2°50.828 350.5 0.4 162 13.2
2007-03-05 09:04:39 51°19.282 2°50.828 350.5 0.4 131 13.3
2007-03-05 09:04:44 51°19.281 2°50.828 349.6 0.4 157 13.2
2007-03-05 09:04:49 51°19.281 2°50.828 348.5 0.4 172 13.2
2007-03-05 09:04:55 51°19.28 2°50.829 347.6 0.5 153 13.3
2007-03-05 09:04:59 51°19.279 2°50.829 346.6 0.5 153 13.2
2007-03-05 09:05:04 51°19.279 2°50.829 346.5 0.4 160 13.3
2007-03-05 09:05:10 51°19.278 2°50.83 345.7 0.3 162 13.4
2007-03-05 09:05:15 51°19.278 2°50.83 345.5 0.4 145 13.4
2007-03-05 09:05:19 51°19.277 2°50.83 345.3 0.5 175 13.4
2007-03-05 09:05:25 51°19.276 2°50.831 345.6 0.4 145 13.4
2007-03-05 09:05:29 51°19.275 2°50.831 345.4 0.5 138 13.5
2007-03-05 09:05:35 51°19.275 2°50.831 344.2 0.5 164 13.3
2007-03-05 09:05:39 51°19.275 2°50.832 344.2 0.4 163 13.2
2007-03-05 09:05:44 51°19.274 2°50.832 344.6 0.5 131 13.2
2007-03-05 09:05:49 51°19.273 2°50.832 344 0.4 187 13.2
2007-03-05 09:05:54 51°19.273 2°50.832 343.6 0.4 142 13.3
2007-03-05 09:05:59 51°19.272 2°50.832 343.3 0.4 153 13.3
2007-03-05 09:06:04 51°19.272 2°50.833 342.2 0.4 157 13.3
2007-03-05 09:06:09 51°19.271 2°50.833 341.8 0.4 148 13.2
2007-03-05 09:06:15 51°19.27 2°50.833 341.7 0.5 158 13.2
2007-03-05 09:06:19 51°19.27 2°50.833 341.2 0.5 181 13.2
2007-03-05 09:06:24 51°19.27 2°50.834 341 0.5 151 13.1
2007-03-05 09:06:29 51°19.269 2°50.834 340.9 0.6 172 13.1
2007-03-05 09:06:35 51°19.269 2°50.834 340.3 0.6 201 13
2007-03-05 09:06:40 51°19.268 2°50.835 340.4 0.5 115 13.2
2007-03-05 09:06:44 51°19.268 2°50.835 339.6 0.5 175 13.3
2007-03-05 09:06:49 51°19.267 2°50.835 338.3 0.6 169 13.3
2007-03-05 09:06:54 51°19.267 2°50.836 338.6 0.4 172 13.4
2007-03-05 09:06:59 51°19.266 2°50.836 338.2 0.6 168 13.3
2007-03-05 09:07:04 51°19.266 2°50.837 337.6 0.5 157 13.1
2007-03-05 09:07:09 51°19.265 2°50.837 338.9 0.6 146 13.2
2007-03-05 09:07:15 51°19.264 2°50.838 338.4 0.5 171 13.2
2007-03-05 09:07:19 51°19.264 2°50.838 338.9 0.5 137 13.3
2007-03-05 09:07:24 51°19.263 2°50.838 339.6 0.5 145 13.4
2007-03-05 09:07:30 51°19.263 2°50.839 339.2 0.6 169 13.4
2007-03-05 09:07:35 51°19.262 2°50.84 339.7 0.5 162 13.5
2007-03-05 09:07:39 51°19.262 2°50.84 340.2 0.5 131 13.6
2007-03-05 09:07:44 51°19.261 2°50.841 339.5 0.4 171 13.6
2007-03-05 09:07:50 51°19.261 2°50.841 338.9 0.3 163 13.7
2007-03-05 09:07:55 51°19.261 2°50.843 339.3 0.5 104 13.7
2007-03-05 09:07:59 51°19.26 2°50.842 339.3 0.4 143 13.4
2007-03-05 09:08:04 51°19.26 2°50.843 338.7 0.5 165 13.3
2007-03-05 09:08:09 51°19.259 2°50.844 338.5 0.6 182 13.2
2007-03-05 09:08:15 51°19.259 2°50.844 338.8 0.5 159 13.2
2007-03-05 09:08:20 51°19.258 2°50.845 339.2 0.5 137 13.2
2007-03-05 09:08:24 51°19.257 2°50.844 339.2 0.5 156 13.1
2007-03-05 09:08:29 51°19.257 2°50.845 338.2 0.4 154 13.2
2007-03-05 09:08:35 51°19.256 2°50.846 338.6 0.5 110 13.5
2007-03-05 09:08:39 51°19.255 2°50.846 338.6 0.6 141 13.4
2007-03-05 09:08:45 51°19.255 2°50.846 337.9 0.7 173 13.1
2007-03-05 09:08:49 51°19.255 2°50.847 338.5 0.6 158 13
2007-03-05 09:08:55 51°19.254 2°50.848 339.5 0.6 167 13.1
2007-03-05 09:09:00 51°19.253 2°50.848 338.8 0.6 169 13.1
2007-03-05 09:09:04 51°19.253 2°50.848 338.9 0.5 170 13.3
2007-03-05 09:09:09 51°19.252 2°50.849 338.8 0.4 187 13.5
2007-03-05 09:09:14 51°19.251 2°50.85 338.2 0.3 136 13.6
2007-03-05 09:09:19 51°19.251 2°50.85 337.7 0.5 105 13.6
2007-03-05 09:09:25 51°19.25 2°50.849 338 0.6 186 13.3
2007-03-05 09:09:29 51°19.25 2°50.85 337.8 0.6 169 13.2
2007-03-05 09:09:35 51°19.249 2°50.851 338.5 0.4 135 13.3
2007-03-05 09:09:39 51°19.248 2°50.851 339.3 0.5 111 13.5
2007-03-05 09:09:44 51°19.248 2°50.851 339.2 0.6 172 13.5
2007-03-05 09:09:50 51°19.247 2°50.852 338.6 0.5 164 13.5
2007-03-05 09:09:55 51°19.246 2°50.853 338.9 0.5 154 13.6
2007-03-05 09:09:59 51°19.246 2°50.853 339.5 0.5 143 13.7
2007-03-05 09:10:04 51°19.245 2°50.854 339.4 0.6 152 13.8
2007-03-05 09:10:10 51°19.244 2°50.855 339.8 0.7 143 13.7
2007-03-05 09:10:15 51°19.244 2°50.855 340.4 0.6 156 13.6
2007-03-05 09:10:19 51°19.243 2°50.855 340.8 0.5 173 13.5
2007-03-05 09:10:24 51°19.242 2°50.856 341.5 0.5 137 13.5
2007-03-05 09:10:29 51°19.242 2°50.856 341.1 0.4 176 13.6
2007-03-05 09:10:35 51°19.241 2°50.856 341 0.4 168 13.6
2007-03-05 09:10:39 51°19.241 2°50.857 340.9 0.5 160 13.6
2007-03-05 09:10:44 51°19.24 2°50.858 341.4 0.5 150 13.7
2007-03-05 09:10:49 51°19.239 2°50.858 341.6 0.4 158 13.6
2007-03-05 09:10:55 51°19.239 2°50.859 341.4 0.5 143 13.6
2007-03-05 09:10:59 51°19.238 2°50.859 341.4 0.4 115 13.6
2007-03-05 09:11:04 51°19.238 2°50.86 341.1 0.4 126 13.4
2007-03-05 09:11:09 51°19.237 2°50.86 340.5 0.4 152 13.3
2007-03-05 09:11:15 51°19.237 2°50.86 340.4 0.4 180 13.3
2007-03-05 09:11:20 51°19.236 2°50.861 340.5 0.4 150 13.5
2007-03-05 09:11:24 51°19.236 2°50.862 340.5 0.6 105 13.7
2007-03-05 09:11:30 51°19.235 2°50.862 339.2 0.5 129 13.5
2007-03-05 09:11:35 51°19.234 2°50.862 338.7 0.5 170 13.4
2007-03-05 09:11:39 51°19.234 2°50.863 338.6 0.5 165 13.4
2007-03-05 09:11:45 51°19.233 2°50.864 339.2 0.5 129 13.5
2007-03-05 09:11:49 51°19.233 2°50.864 338.9 0.6 171 13.6
2007-03-05 09:11:55 51°19.232 2°50.864 338.4 0.6 173 13.7
2007-03-05 09:11:59 51°19.232 2°50.865 338.8 0.5 152 13.8
2007-03-05 09:12:05 51°19.231 2°50.865 338.2 0.5 149 13.9
2007-03-05 09:12:09 51°19.23 2°50.865 338.2 0.5 143 13.8
2007-03-05 09:12:14 51°19.23 2°50.865 337.8 0.6 171 13.7
2007-03-05 09:12:19 51°19.23 2°50.867 338.2 0.6 175 13.6
2007-03-05 09:12:24 51°19.229 2°50.868 338.7 0.5 128 13.5
2007-03-05 09:12:30 51°19.228 2°50.868 337.4 0.5 149 13.2
2007-03-05 09:12:35 51°19.227 2°50.868 337.8 0.6 168 13.2
2007-03-05 09:12:39 51°19.227 2°50.869 337.7 0.5 150 13.4
2007-03-05 09:12:44 51°19.226 2°50.869 338.2 0.5 132 13.7
2007-03-05 09:12:49 51°19.226 2°50.87 337.2 0.6 168 13.7
2007-03-05 09:12:55 51°19.225 2°50.87 337.9 0.5 166 13.8
2007-03-05 09:12:59 51°19.224 2°50.871 338.5 0.5 137 13.9
2007-03-05 09:13:04 51°19.223 2°50.871 339 0.5 139 13.8
2007-03-05 09:13:09 51°19.223 2°50.872 338.7 0.6 128 13.7
2007-03-05 09:13:14 51°19.222 2°50.872 339.2 0.6 146 13.6
2007-03-05 09:13:19 51°19.221 2°50.873 339.5 0.5 158 13.6
2007-03-05 09:13:24 51°19.221 2°50.874 339.9 0.5 168 13.7
2007-03-05 09:13:29 51°19.22 2°50.874 340 0.5 155 13.8
2007-03-05 09:13:35 51°19.219 2°50.875 339.7 0.5 164 13.9
2007-03-05 09:13:40 51°19.219 2°50.876 340.4 0.6 122 13.9
2007-03-05 09:13:44 51°19.218 2°50.875 341.1 0.7 167 13.8
2007-03-05 09:13:50 51°19.217 2°50.877 341.2 0.7 159 13.6
2007-03-05 09:13:55 51°19.216 2°50.877 342.7 0.5 155 13.7
2007-03-05 09:13:59 51°19.216 2°50.877 342.4 0.5 144 13.8
2007-03-05 09:14:05 51°19.215 2°50.878 342.3 0.6 179 13.7
2007-03-05 09:14:09 51°19.214 2°50.879 342.3 0.6 169 13.7
2007-03-05 09:14:15 51°19.214 2°50.88 342.7 0.6 146 13.7
2007-03-05 09:14:19 51°19.213 2°50.88 342.9 0.5 152 13.8
2007-03-05 09:14:24 51°19.212 2°50.881 342.4 0.4 122 13.8
2007-03-05 09:14:30 51°19.212 2°50.881 342.7 0.3 101 13.7
2007-03-05 09:14:35 51°19.212 2°50.881 343.5 0.1 181 13.5
2007-03-05 09:14:39 51°19.212 2°50.88 344.4 0.1 -999 13.5
2007-03-05 09:14:44 51°19.213 2°50.88 345.2 0.6 324 13.5
2007-03-05 09:14:50 51°19.214 2°50.879 345.6 0.9 332 13.6
2007-03-05 09:14:55 51°19.215 2°50.878 346 1.2 333 13.8
2007-03-05 09:14:59 51°19.217 2°50.877 346.1 1.6 331 13.8
2007-03-05 09:15:04 51°19.219 2°50.876 346.2 2 332 13.9
2007-03-05 09:15:09 51°19.222 2°50.873 346.2 2.4 340 13.9
2007-03-05 09:15:15 51°19.227 2°50.871 346.5 2.7 344 13.8
2007-03-05 09:15:20 51°19.23 2°50.868 347.5 2.9 334 13.6
2007-03-05 09:15:24 51°19.233 2°50.867 350.9 3.1 341 13.7
2007-03-05 09:15:29 51°19.238 2°50.865 353.9 3.1 347 13.5
2007-03-05 09:15:35 51°19.243 2°50.864 0.7 3.3 356 13.5
2007-03-05 09:15:40 51°19.248 2°50.865 5.2 3.3 3 13.6
2007-03-05 09:15:45 51°19.253 2°50.866 11.3 3.5 8 13.4
2007-03-05 09:15:49 51°19.257 2°50.868 17.1 3.7 16 13.4
2007-03-05 09:15:54 51°19.262 2°50.871 21 3.9 17 13.4
2007-03-05 09:15:59 51°19.267 2°50.873 23.9 4 20 13.3
2007-03-05 09:16:05 51°19.273 2°50.878 25.9 4.1 23 13.5
2007-03-05 09:16:10 51°19.279 2°50.882 28.1 4.2 31 13.5
2007-03-05 09:16:15 51°19.284 2°50.886 31.6 4.4 26 13.4
2007-03-05 09:16:19 51°19.288 2°50.891 34.1 4.5 29 13.6
2007-03-05 09:16:25 51°19.294 2°50.898 36.3 4.5 40 13.5
2007-03-05 09:16:29 51°19.299 2°50.902 37.7 4.5 36 13.5
2007-03-05 09:16:35 51°19.304 2°50.91 41.7 4.6 38 13.6
2007-03-05 09:16:39 51°19.308 2°50.916 42.2 4.6 51 13.5
2007-03-05 09:16:44 51°19.312 2°50.923 46.7 4.6 43 13.5
2007-03-05 09:16:50 51°19.317 2°50.934 49.9 4.7 54 13.6
2007-03-05 09:16:55 51°19.321 2°50.941 51.1 4.6 50 13.7
2007-03-05 09:16:59 51°19.324 2°50.949 53.8 4.7 56 13.9
2007-03-05 09:17:04 51°19.329 2°50.956 54.2 4.7 50 13.9
2007-03-05 09:17:10 51°19.332 2°50.967 55.8 4.7 54 14
2007-03-05 09:17:15 51°19.336 2°50.976 54.8 4.8 60 13.9
2007-03-05 09:17:19 51°19.34 2°50.983 56.5 4.8 50 13.8
2007-03-05 09:17:24 51°19.343 2°50.991 56.1 4.9 60 13.9
2007-03-05 09:17:29 51°19.347 2°51 56.2 4.7 51 13.9
2007-03-05 09:17:35 51°19.351 2°51.011 55.9 4.7 62 13.8
2007-03-05 09:17:40 51°19.355 2°51.018 56.5 4.5 50 13.8
2007-03-05 09:17:44 51°19.358 2°51.026 56.5 4.4 58 13.8
2007-03-05 09:17:49 51°19.361 2°51.033 55.1 4.3 57 13.8
2007-03-05 09:17:54 51°19.365 2°51.041 55.9 4.2 54 13.8
2007-03-05 09:17:59 51°19.367 2°51.048 56 4.1 58 13.8
2007-03-05 09:18:04 51°19.371 2°51.056 55.1 4 57 13.9
2007-03-05 09:18:09 51°19.373 2°51.063 55.5 3.9 56 13.9
2007-03-05 09:18:15 51°19.377 2°51.071 54.7 3.8 57 14
2007-03-05 09:18:20 51°19.38 2°51.078 55.1 3.7 52 13.9
2007-03-05 09:18:24 51°19.382 2°51.084 54.5 3.7 60 14
2007-03-05 09:18:30 51°19.386 2°51.092 53.4 3.6 55 13.9
2007-03-05 09:18:35 51°19.389 2°51.098 53.9 3.6 50 14.1
2007-03-05 09:18:39 51°19.391 2°51.103 52.5 3.6 61 14
2007-03-05 09:18:44 51°19.394 2°51.109 51.9 3.5 53 13.9
2007-03-05 09:18:50 51°19.397 2°51.117 54.2 3.5 52 13.8
2007-03-05 09:18:55 51°19.399 2°51.124 53 3.5 63 13.8
2007-03-05 09:18:59 51°19.402 2°51.128 54 3.4 49 13.9
2007-03-05 09:19:05 51°19.405 2°51.136 55.1 3.4 58 14
2007-03-05 09:19:09 51°19.407 2°51.141 54 3.4 64 13.9
2007-03-05 09:19:15 51°19.41 2°51.149 56.3 3.4 50 13.9
2007-03-05 09:19:20 51°19.412 2°51.156 56.6 3.4 62 14
2007-03-05 09:19:24 51°19.415 2°51.16 56.2 3.3 57 14
2007-03-05 09:19:29 51°19.417 2°51.167 57.7 3.4 55 14.1
2007-03-05 09:19:35 51°19.42 2°51.175 57 3.4 60 14.2
2007-03-05 09:19:39 51°19.422 2°51.18 56.9 3.4 58 14.2
2007-03-05 09:19:45 51°19.425 2°51.187 56.6 3.4 58 14.2
2007-03-05 09:19:50 51°19.428 2°51.194 56.7 3.4 55 14.3
2007-03-05 09:19:55 51°19.43 2°51.2 56 3.4 58 14.2
2007-03-05 09:20:00 51°19.433 2°51.207 55.4 3.4 59 14.2
2007-03-05 09:20:04 51°19.435 2°51.211 55.9 3.4 55 14.2
2007-03-05 09:20:09 51°19.438 2°51.218 55.2 3.5 54 14.2
2007-03-05 09:20:14 51°19.44 2°51.224 54.9 3.5 60 14.2
2007-03-05 09:20:19 51°19.443 2°51.23 55.1 3.4 55 14.1
2007-03-05 09:20:24 51°19.446 2°51.237 55.1 3.4 58 14.1
2007-03-05 09:20:29 51°19.448 2°51.243 55.5 3.4 55 14.1
2007-03-05 09:20:35 51°19.451 2°51.251 55.4 3.4 59 14.1
2007-03-05 09:20:39 51°19.453 2°51.255 55.8 3.3 53 14.1
2007-03-05 09:20:44 51°19.455 2°51.262 55.6 3.4 64 14.2
2007-03-05 09:20:50 51°19.459 2°51.269 55.7 3.3 53 14.1
2007-03-05 09:20:55 51°19.46 2°51.275 56.2 3.3 59 14.3
2007-03-05 09:20:59 51°19.463 2°51.28 54.6 3.3 66 14.1
2007-03-05 09:21:04 51°19.465 2°51.286 55.8 3.2 50 14
2007-03-05 09:21:10 51°19.467 2°51.294 56.2 3.3 62 14
2007-03-05 09:21:15 51°19.47 2°51.3 54.7 3.2 61 14
2007-03-05 09:21:19 51°19.472 2°51.304 56.2 3.2 52 14
2007-03-05 09:21:24 51°19.474 2°51.311 56 3.2 60 14.2
2007-03-05 09:21:29 51°19.477 2°51.316 55 3.1 57 14.2
2007-03-05 09:21:35 51°19.48 2°51.324 55.1 3.2 60 14.2
2007-03-05 09:21:39 51°19.482 2°51.328 55.6 3.2 55 14.3
2007-03-05 09:21:44 51°19.484 2°51.334 55.7 3.1 60 14.3
2007-03-05 09:21:50 51°19.487 2°51.341 55.3 3.2 55 14.4
2007-03-05 09:21:55 51°19.489 2°51.348 55.7 3.2 59 14.4
2007-03-05 09:21:59 51°19.491 2°51.352 55.2 3.3 62 14.3
2007-03-05 09:22:04 51°19.494 2°51.358 55.6 3.3 52 14.3
2007-03-05 09:22:09 51°19.496 2°51.365 55.5 3.2 59 14.3
2007-03-05 09:22:15 51°19.499 2°51.372 54.4 3.2 62 14.1
2007-03-05 09:22:20 51°19.501 2°51.378 55.1 3.3 57 14
2007-03-05 09:22:24 51°19.503 2°51.383 55.9 3.2 54 14.1
2007-03-05 09:22:30 51°19.506 2°51.39 54.5 3.2 66 14.1
2007-03-05 09:22:35 51°19.508 2°51.396 54.6 3.2 57 13.9
2007-03-05 09:22:40 51°19.511 2°51.402 56.8 3.2 53 14
2007-03-05 09:22:44 51°19.512 2°51.407 55.6 3.2 60 14.1
2007-03-05 09:22:49 51°19.515 2°51.413 55.2 3.1 59 14.2
2007-03-05 09:22:55 51°19.517 2°51.42 56.1 3.2 61 14.3
2007-03-05 09:22:59 51°19.519 2°51.425 56.2 3.2 55 14.4
2007-03-05 09:23:05 51°19.522 2°51.432 56.2 3.3 62 14.6
2007-03-05 09:23:09 51°19.524 2°51.437 56.1 3.3 56 14.6
2007-03-05 09:23:14 51°19.526 2°51.444 56.5 3.2 59 14.6
2007-03-05 09:23:19 51°19.529 2°51.449 55.4 3.3 61 14.4
2007-03-05 09:23:25 51°19.531 2°51.457 56.9 3.3 53 14.4
2007-03-05 09:23:30 51°19.533 2°51.464 57.2 3.3 65 14.3
2007-03-05 09:23:35 51°19.536 2°51.469 56.3 3.3 56 14.2
2007-03-05 09:23:39 51°19.538 2°51.475 58.1 3.4 52 14.4
2007-03-05 09:23:45 51°19.541 2°51.483 57 3.5 68 14.1
2007-03-05 09:23:49 51°19.543 2°51.487 56.5 3.3 55 14
2007-03-05 09:23:55 51°19.546 2°51.495 58.7 3.4 56 14.3
2007-03-05 09:24:00 51°19.548 2°51.502 56.6 3.5 69 14.1
2007-03-05 09:24:04 51°19.55 2°51.507 56.8 3.4 52 14.1
2007-03-05 09:24:09 51°19.552 2°51.514 58.7 3.4 61 14.3
2007-03-05 09:24:15 51°19.555 2°51.521 56.7 3.4 66 14.2
2007-03-05 09:24:20 51°19.558 2°51.527 58.6 3.3 53 14.3
2007-03-05 09:24:24 51°19.559 2°51.533 59.1 3.4 64 14.5
2007-03-05 09:24:29 51°19.562 2°51.539 57.8 3.3 58 14.5
2007-03-05 09:24:35 51°19.565 2°51.547 58.4 3.3 59 14.8
2007-03-05 09:24:40 51°19.567 2°51.553 57.8 3.3 64 14.7
2007-03-05 09:24:45 51°19.569 2°51.559 57.7 3.3 54 14.7
2007-03-05 09:24:49 51°19.571 2°51.565 57.3 3.4 64 14.8
2007-03-05 09:24:55 51°19.575 2°51.572 56.5 3.3 52 14.6
2007-03-05 09:25:00 51°19.577 2°51.578 56.4 3.3 58 14.6
2007-03-05 09:25:04 51°19.579 2°51.583 55.2 3.4 57 14.6
2007-03-05 09:25:09 51°19.581 2°51.589 55.6 3.4 54 14.7
2007-03-05 09:25:15 51°19.584 2°51.597 54.7 3.3 58 14.5
2007-03-05 09:25:20 51°19.587 2°51.603 54.2 3.5 59 14.5
2007-03-05 09:25:25 51°19.59 2°51.61 55.5 3.4 56 14.4
2007-03-05 09:25:29 51°19.591 2°51.615 55.1 3.3 66 14.4
2007-03-05 09:25:35 51°19.594 2°51.622 54.9 3.3 59 14.3
2007-03-05 09:25:39 51°19.596 2°51.628 57.1 3.3 52 14.3
2007-03-05 09:25:44 51°19.598 2°51.634 56 3.4 69 14.5
2007-03-05 09:25:50 51°19.601 2°51.641 54.5 3.2 57 14.2
2007-03-05 09:25:55 51°19.603 2°51.647 56.6 3.3 56 14.4
2007-03-05 09:25:59 51°19.605 2°51.652 55.5 3.3 60 14.6
2007-03-05 09:26:05 51°19.608 2°51.66 54.8 3.3 58 14.6
2007-03-05 09:26:10 51°19.611 2°51.666 55.3 3.3 55 14.7
2007-03-05 09:26:15 51°19.614 2°51.672 54.6 3.3 56 14.8
2007-03-05 09:26:20 51°19.616 2°51.678 54 3.2 55 15
2007-03-05 09:26:24 51°19.618 2°51.682 53.8 3.2 56 14.9
2007-03-05 09:26:29 51°19.621 2°51.688 54.2 3.2 48 14.9
2007-03-05 09:26:35 51°19.623 2°51.696 53.2 3.3 62 14.9
2007-03-05 09:26:39 51°19.626 2°51.7 52.4 3.2 55 14.8
2007-03-05 09:26:44 51°19.629 2°51.706 54.4 3.3 49 14.9
2007-03-05 09:26:49 51°19.631 2°51.712 53.4 3.4 66 14.8
2007-03-05 09:26:55 51°19.635 2°51.719 53 3.2 49 14.7
2007-03-05 09:27:00 51°19.637 2°51.725 54.7 3.3 53 14.8
2007-03-05 09:27:04 51°19.639 2°51.73 53.2 3.3 55 14.8
2007-03-05 09:27:09 51°19.641 2°51.736 53.2 3.2 53 15
2007-03-05 09:27:15 51°19.645 2°51.743 53.1 3.3 58 15
2007-03-05 09:27:20 51°19.648 2°51.748 52.8 3.3 50 15.1
2007-03-05 09:27:24 51°19.649 2°51.753 53.7 3.3 56 15.1
2007-03-05 09:27:29 51°19.652 2°51.759 52 3.2 58 14.8
2007-03-05 09:27:34 51°19.655 2°51.765 54 3.2 54 14.7
2007-03-05 09:27:39 51°19.657 2°51.771 55.3 3.3 59 14.9
2007-03-05 09:27:45 51°19.66 2°51.779 54.7 3.2 55 15
2007-03-05 09:27:49 51°19.662 2°51.784 55.1 3.3 58 15
2007-03-05 09:27:55 51°19.665 2°51.791 54.5 3.2 55 15
2007-03-05 09:28:00 51°19.667 2°51.797 55.1 3.3 59 15.2
2007-03-05 09:28:05 51°19.67 2°51.803 54.3 3.3 59 15.1
2007-03-05 09:28:09 51°19.672 2°51.807 55 3.3 53 15.1
2007-03-05 09:28:14 51°19.674 2°51.814 55.6 3.4 61 15.1
2007-03-05 09:28:19 51°19.677 2°51.82 55.7 3.4 50 15
2007-03-05 09:28:24 51°19.679 2°51.827 56.6 3.5 61 15.1
2007-03-05 09:28:30 51°19.683 2°51.834 55.3 3.5 63 14.9
2007-03-05 09:28:35 51°19.686 2°51.84 57.3 3.5 49 14.9
2007-03-05 09:28:40 51°19.687 2°51.848 57.7 3.5 64 15
2007-03-05 09:28:44 51°19.69 2°51.852 55.8 3.3 58 14.8
2007-03-05 09:28:49 51°19.692 2°51.859 58 3.4 55 14.8
2007-03-05 09:28:55 51°19.695 2°51.867 57.1 3.5 64 15
2007-03-05 09:28:59 51°19.697 2°51.872 56.7 3.3 59 15
2007-03-05 09:29:04 51°19.699 2°51.878 58.1 3.4 62 15
2007-03-05 09:29:09 51°19.701 2°51.885 58.3 3.3 55 15.1
2007-03-05 09:29:15 51°19.704 2°51.893 58.2 3.4 61 15.1
2007-03-05 09:29:19 51°19.706 2°51.897 57.3 3.3 54 15.1
2007-03-05 09:29:24 51°19.709 2°51.904 56.6 3.5 62 15
2007-03-05 09:29:29 51°19.712 2°51.909 56.7 3.4 50 15
2007-03-05 09:29:35 51°19.714 2°51.918 55.5 3.4 60 15
2007-03-05 09:29:40 51°19.717 2°51.923 55 3.4 56 14.8
2007-03-05 09:29:44 51°19.719 2°51.929 56.5 3.4 52 14.9
2007-03-05 09:29:50 51°19.722 2°51.936 55.8 3.4 58 14.8
2007-03-05 09:29:55 51°19.725 2°51.942 55.5 3.4 53 14.9
2007-03-05 09:29:59 51°19.727 2°51.947 55.6 3.3 57 14.9
2007-03-05 09:30:05 51°19.73 2°51.954 55.1 3.3 57 14.9
2007-03-05 09:30:09 51°19.733 2°51.959 55.5 3.4 54 15
2007-03-05 09:30:15 51°19.736 2°51.966 56 3.4 54 15.1
2007-03-05 09:30:19 51°19.738 2°51.971 55.4 3.4 56 15.1
2007-03-05 09:30:24 51°19.74 2°51.978 56 3.4 51 15
2007-03-05 09:30:30 51°19.743 2°51.986 55.4 3.4 61 15
2007-03-05 09:30:35 51°19.746 2°51.991 55.2 3.3 56 15
2007-03-05 09:30:39 51°19.748 2°51.996 56.3 3.3 58 15.1
2007-03-05 09:30:44 51°19.751 2°52.002 56.1 3.3 58 15.1
2007-03-05 09:30:50 51°19.754 2°52.01 56.4 3.3 53 15.1
2007-03-05 09:30:55 51°19.757 2°52.016 55.2 3.3 56 15.2
2007-03-05 09:30:59 51°19.759 2°52.021 54.8 3.3 56 15.3
2007-03-05 09:31:04 51°19.761 2°52.026 54 3.3 55 15.3
2007-03-05 09:31:09 51°19.764 2°52.032 54.8 3.4 51 15.4
2007-03-05 09:31:15 51°19.767 2°52.04 54.1 3.4 58 15.3
2007-03-05 09:31:20 51°19.77 2°52.046 53.5 3.3 55 15.1
2007-03-05 09:31:24 51°19.772 2°52.051 54.1 3.3 54 15.1
2007-03-05 09:31:29 51°19.775 2°52.056 53.7 3.3 53 15.4
2007-03-05 09:31:35 51°19.779 2°52.063 53.5 3.4 47 15.4
2007-03-05 09:31:40 51°19.781 2°52.07 52.9 3.4 57 15.4
2007-03-05 09:31:45 51°19.784 2°52.076 52.5 3.4 53 15.2
2007-03-05 09:31:49 51°19.786 2°52.08 53 3.3 50 15.3
2007-03-05 09:31:54 51°19.789 2°52.086 52.7 3.4 53 15.4
2007-03-05 09:32:00 51°19.793 2°52.093 52.3 3.4 52 15.3
2007-03-05 09:32:05 51°19.796 2°52.099 52.4 3.4 52 15.3
2007-03-05 09:32:10 51°19.798 2°52.105 52.2 3.4 52 15.3
2007-03-05 09:32:15 51°19.801 2°52.111 52.3 3.4 53 15.3
2007-03-05 09:32:19 51°19.804 2°52.116 52.3 3.4 53 15.3
2007-03-05 09:32:25 51°19.807 2°52.123 52.7 3.4 50 15.3
2007-03-05 09:32:29 51°19.809 2°52.128 52.9 3.5 53 15.5
2007-03-05 09:32:35 51°19.813 2°52.135 52.4 3.5 56 15.4
2007-03-05 09:32:39 51°19.815 2°52.14 53.3 3.4 48 15.4
2007-03-05 09:32:45 51°19.818 2°52.148 52.9 3.5 58 15.4
2007-03-05 09:32:50 51°19.822 2°52.153 52.5 3.4 48 15.3
2007-03-05 09:32:55 51°19.824 2°52.159 53.7 3.4 53 15.4
2007-03-05 09:32:59 51°19.827 2°52.164 52.8 3.4 58 15.4
2007-03-05 09:33:04 51°19.83 2°52.17 53.7 3.4 49 15.3
2007-03-05 09:33:10 51°19.833 2°52.177 54.4 3.4 55 15.3
2007-03-05 09:33:15 51°19.836 2°52.183 53.6 3.3 51 15.4
2007-03-05 09:33:19 51°19.838 2°52.188 53.7 3.4 55 15.4
2007-03-05 09:33:24 51°19.841 2°52.194 53.7 3.4 54 15.4
2007-03-05 09:33:29 51°19.843 2°52.2 53.7 3.3 55 15.5
2007-03-05 09:33:35 51°19.847 2°52.207 53.9 3.4 55 15.4
2007-03-05 09:33:40 51°19.849 2°52.213 54.5 3.4 52 15.4
2007-03-05 09:33:44 51°19.852 2°52.218 54.4 3.4 54 15.4
2007-03-05 09:33:49 51°19.854 2°52.224 53.7 3.3 55 15.4
2007-03-05 09:33:55 51°19.858 2°52.232 54.3 3.4 54 15.3
2007-03-05 09:33:59 51°19.86 2°52.236 54.5 3.4 52 15.3
2007-03-05 09:34:04 51°19.863 2°52.243 54.5 3.4 55 15.4
2007-03-05 09:34:09 51°19.866 2°52.248 54 3.4 57 15.4
2007-03-05 09:34:15 51°19.869 2°52.256 54.5 3.5 50 15.4
2007-03-05 09:34:20 51°19.872 2°52.262 54.1 3.4 52 15.5
2007-03-05 09:34:24 51°19.874 2°52.267 53.5 3.4 56 15.3
2007-03-05 09:34:30 51°19.878 2°52.274 53.8 3.4 49 15.3
2007-03-05 09:34:35 51°19.88 2°52.28 54.4 3.4 53 15.3
2007-03-05 09:34:39 51°19.882 2°52.285 52.8 3.4 60 15.2
2007-03-05 09:34:45 51°19.886 2°52.292 53.5 3.4 50 15.2
2007-03-05 09:34:49 51°19.888 2°52.298 54.9 3.5 54 15.3
2007-03-05 09:34:55 51°19.891 2°52.305 54.2 3.4 54 15.5
2007-03-05 09:34:59 51°19.893 2°52.31 53.9 3.4 59 15.3
2007-03-05 09:35:05 51°19.897 2°52.317 55.1 3.4 50 15.3
2007-03-05 09:35:09 51°19.899 2°52.322 55.3 3.5 55 15.4
2007-03-05 09:35:15 51°19.902 2°52.329 54.4 3.4 57 15.4
2007-03-05 09:35:20 51°19.905 2°52.335 55.1 3.3 53 15.5
2007-03-05 09:35:24 51°19.907 2°52.34 55.1 3.3 60 15.5
2007-03-05 09:35:29 51°19.91 2°52.346 55.5 3.3 54 15.4
2007-03-05 09:35:35 51°19.912 2°52.353 56 3.3 54 15.5
2007-03-05 09:35:39 51°19.915 2°52.358 54.7 3.3 58 15.7
2007-03-05 09:35:45 51°19.918 2°52.366 55.4 3.4 54 15.4
2007-03-05 09:35:49 51°19.92 2°52.37 55.4 3.3 53 15.4
2007-03-05 09:35:55 51°19.923 2°52.377 54.7 3.3 54 15.5
2007-03-05 09:36:00 51°19.926 2°52.383 54.4 3.4 54 15.4
2007-03-05 09:36:04 51°19.928 2°52.388 54.6 3.4 50 15.4
2007-03-05 09:36:09 51°19.931 2°52.394 54 3.4 58 15.4
2007-03-05 09:36:15 51°19.935 2°52.401 54.4 3.4 50 15.4
2007-03-05 09:36:19 51°19.937 2°52.406 55 3.5 56 15.4
2007-03-05 09:36:25 51°19.94 2°52.414 54.5 3.4 51 15.4
2007-03-05 09:36:29 51°19.942 2°52.419 54 3.4 60 15.4
2007-03-05 09:36:35 51°19.945 2°52.426 54.4 3.3 58 15.2
2007-03-05 09:36:39 51°19.947 2°52.431 56.2 3.3 52 15.3
2007-03-05 09:36:44 51°19.95 2°52.438 56.2 3.4 62 15.3
2007-03-05 09:36:50 51°19.953 2°52.444 55.1 3.4 51 15.3
2007-03-05 09:36:55 51°19.956 2°52.45 55.4 3.4 50 15.4
2007-03-05 09:36:59 51°19.958 2°52.455 53.7 3.4 58 15.4
2007-03-05 09:37:05 51°19.962 2°52.462 53.7 3.3 49 15.4
2007-03-05 09:37:10 51°19.964 2°52.469 55 3.4 56 15.4
2007-03-05 09:37:15 51°19.967 2°52.474 54.4 3.4 53 15.5
2007-03-05 09:37:19 51°19.969 2°52.48 55 3.4 53 15.5
2007-03-05 09:37:24 51°19.972 2°52.486 54.7 3.5 58 15.5
2007-03-05 09:37:30 51°19.976 2°52.493 54.8 3.5 50 15.4
2007-03-05 09:37:35 51°19.978 2°52.499 55.1 3.5 55 15.5
2007-03-05 09:37:39 51°19.981 2°52.504 54.7 3.6 57 15.4
2007-03-05 09:37:44 51°19.983 2°52.511 55.5 3.5 52 15.4
2007-03-05 09:37:49 51°19.986 2°52.517 55.1 3.5 58 15.4
2007-03-05 09:37:55 51°19.989 2°52.524 54.7 3.5 55 15.3
2007-03-05 09:37:59 51°19.991 2°52.53 56.4 3.5 51 15.3
2007-03-05 09:38:04 51°19.994 2°52.536 55.3 3.6 64 15.3
2007-03-05 09:38:09 51°19.997 2°52.542 55.3 3.5 52 15.3
2007-03-05 09:38:15 51°20 2°52.55 56 3.5 57 15.4
2007-03-05 09:38:20 51°20.003 2°52.556 54.3 3.5 55 15.4
2007-03-05 09:38:24 51°20.005 2°52.561 54.7 3.5 50 15.5
2007-03-05 09:38:29 51°20.008 2°52.567 53.9 3.5 54 15.4
2007-03-05 09:38:34 51°20.011 2°52.573 53.1 3.4 46 15.5
2007-03-05 09:38:40 51°20.014 2°52.581 52.1 3.5 60 15.5
2007-03-05 09:38:45 51°20.018 2°52.586 51.7 3.4 47 15.4
2007-03-05 09:38:49 51°20.02 2°52.591 52.2 3.4 56 15.5
2007-03-05 09:38:55 51°20.023 2°52.598 51.2 3.4 52 15.5
2007-03-05 09:39:00 51°20.026 2°52.604 51.4 3.4 55 15.4
2007-03-05 09:39:05 51°20.029 2°52.61 52.1 3.4 46 15.5
2007-03-05 09:39:09 51°20.031 2°52.615 51.6 3.3 58 15.6
2007-03-05 09:39:14 51°20.035 2°52.62 50.6 3.3 51 15.4
2007-03-05 09:39:19 51°20.037 2°52.626 52.2 3.4 50 15.3
2007-03-05 09:39:25 51°20.041 2°52.633 51.9 3.4 51 15.3